createdAt,value
2022-11-17T00:01:22.233Z,5.57
2022-11-17T00:04:09.269Z,7.00
2022-11-17T00:06:57.005Z,7.20
2022-11-17T00:09:44.406Z,6.67
2022-11-17T00:12:49.069Z,5.40
2022-11-17T00:15:36.132Z,6.77
2022-11-17T00:18:42.136Z,6.43
2022-11-17T00:21:29.543Z,7.43
2022-11-17T00:24:17.830Z,7.37
2022-11-17T00:27:05.016Z,6.90
2022-11-17T00:29:52.216Z,5.00
2022-11-17T00:32:56.974Z,7.80
2022-11-17T00:35:45.952Z,5.73
2022-11-17T00:38:33.142Z,7.10
2022-11-17T00:41:20.551Z,7.13
2022-11-17T00:44:08.237Z,7.80
2022-11-17T00:46:57.196Z,7.33
2022-11-17T00:49:44.366Z,4.83
2022-11-17T00:52:33.020Z,5.27
2022-11-17T00:55:20.227Z,6.57
2022-11-17T00:58:07.718Z,6.40
2022-11-17T01:00:55.082Z,6.43
2022-11-17T01:03:42.420Z,6.70
2022-11-17T01:06:31.414Z,6.03
2022-11-17T01:09:22.556Z,6.50
2022-11-17T01:12:09.885Z,5.63
2022-11-17T01:14:57.077Z,5.43
2022-11-17T01:17:44.554Z,6.17
2022-11-17T01:20:32.047Z,6.20
2022-11-17T01:23:19.441Z,5.07
2022-11-17T01:26:10.822Z,5.90
2022-11-17T01:28:59.952Z,3.23
2022-11-17T01:31:51.335Z,5.77
2022-11-17T01:34:38.657Z,5.33
2022-11-17T01:37:27.656Z,5.60
2022-11-17T01:40:15.013Z,5.13
2022-11-17T01:43:06.122Z,6.10
2022-11-17T01:45:53.425Z,5.97
2022-11-17T01:48:41.836Z,6.40
2022-11-17T01:51:31.825Z,5.33
2022-11-17T01:54:22.938Z,5.50
2022-11-17T01:57:13.365Z,6.17
2022-11-17T02:00:04.935Z,5.80
2022-11-17T02:02:53.798Z,4.93
2022-11-17T02:05:46.432Z,5.57
2022-11-17T02:08:36.239Z,5.40
2022-11-17T02:11:25.040Z,5.23
2022-11-17T02:14:12.466Z,4.40
2022-11-17T02:17:08.952Z,5.70
2022-11-17T02:20:07.176Z,3.63
2022-11-17T02:23:19.670Z,2.87
2022-11-17T02:26:32.946Z,3.57
2022-11-17T02:29:28.683Z,3.63
2022-11-17T02:32:22.766Z,4.97
2022-11-17T02:35:18.583Z,5.30
2022-11-17T02:38:16.815Z,5.37
2022-11-17T02:41:11.421Z,3.27
2022-11-17T02:44:05.095Z,3.93
2022-11-17T02:46:58.879Z,5.20
2022-11-17T02:49:50.523Z,3.50
2022-11-17T02:52:38.270Z,5.57
2022-11-17T02:55:25.500Z,5.57
2022-11-17T02:58:13.431Z,5.63
2022-11-17T03:01:20.637Z,5.73
2022-11-17T03:04:27.148Z,5.10
2022-11-17T03:07:30.826Z,5.80
2022-11-17T03:10:21.579Z,5.90
2022-11-17T03:13:14.537Z,5.93
2022-11-17T03:16:12.526Z,4.93
2022-11-17T03:19:07.487Z,5.33
2022-11-17T03:22:00.529Z,5.57
2022-11-17T03:24:51.473Z,5.97
2022-11-17T03:27:41.406Z,3.17
2022-11-17T03:30:36.165Z,6.33
2022-11-17T03:33:26.730Z,5.83
2022-11-17T03:36:17.736Z,6.07
2022-11-17T03:39:10.844Z,5.60
2022-11-17T03:42:03.203Z,5.43
2022-11-17T03:44:54.817Z,6.00
2022-11-17T03:47:44.508Z,6.00
2022-11-17T03:50:37.478Z,6.73
2022-11-17T03:53:25.244Z,5.73
2022-11-17T03:56:27.108Z,5.40
2022-11-17T03:59:19.281Z,4.03
2022-11-17T04:02:07.021Z,6.00
2022-11-17T04:05:06.584Z,4.30
2022-11-17T04:07:54.003Z,5.67
2022-11-17T04:10:55.283Z,5.30
2022-11-17T04:14:01.467Z,5.73
2022-11-17T04:16:48.605Z,4.53
2022-11-17T04:19:35.846Z,5.77
2022-11-17T04:22:23.221Z,6.13
2022-11-17T04:25:31.043Z,5.70
2022-11-17T04:28:35.986Z,5.57
2022-11-17T04:31:26.351Z,6.50
2022-11-17T04:34:13.730Z,6.80
2022-11-17T04:37:06.975Z,6.23
2022-11-17T04:39:55.497Z,7.43
2022-11-17T04:42:41.928Z,6.40
2022-11-17T04:45:29.471Z,4.07
2022-11-17T04:48:18.113Z,5.23
2022-11-17T04:51:05.617Z,5.40
2022-11-17T04:53:53.873Z,4.57
2022-11-17T04:56:41.973Z,7.03
2022-11-17T04:59:29.045Z,7.40
2022-11-17T05:02:16.431Z,3.37
2022-11-17T05:05:05.885Z,6.87
2022-11-17T05:07:52.820Z,5.83
2022-11-17T05:10:57.679Z,7.20
2022-11-17T05:13:44.782Z,5.73
2022-11-17T05:16:49.387Z,4.93
2022-11-17T05:19:38.668Z,5.90
2022-11-17T05:22:44.660Z,7.40
2022-11-17T05:25:31.735Z,7.27
2022-11-17T05:28:19.155Z,6.73
2022-11-17T05:31:07.019Z,7.40
2022-11-17T05:33:55.095Z,7.10
2022-11-17T05:36:42.880Z,7.13
2022-11-17T05:39:31.213Z,7.40
2022-11-17T05:42:18.332Z,7.00
2022-11-17T05:45:06.788Z,7.50
2022-11-17T05:47:54.136Z,4.37
2022-11-17T05:50:41.624Z,5.20
2022-11-17T05:53:29.902Z,7.00
2022-11-17T05:56:33.419Z,7.10
2022-11-17T05:59:28.002Z,5.43
2022-11-17T06:02:18.963Z,6.97
2022-11-17T06:05:06.655Z,7.53
2022-11-17T06:07:57.910Z,7.87
2022-11-17T06:10:45.124Z,7.63
2022-11-17T06:13:34.031Z,5.10
2022-11-17T06:16:25.047Z,7.10
2022-11-17T06:19:17.087Z,5.97
2022-11-17T06:22:12.236Z,7.80
2022-11-17T06:25:00.866Z,5.43
2022-11-17T06:27:49.899Z,6.93
2022-11-17T06:30:39.530Z,5.77
2022-11-17T06:33:30.325Z,7.03
2022-11-17T06:36:17.815Z,7.23
2022-11-17T06:39:05.182Z,5.40
2022-11-17T06:41:52.425Z,7.10
2022-11-17T06:44:39.763Z,7.47
2022-11-17T06:47:36.014Z,5.20
2022-11-17T06:50:23.036Z,4.80
2022-11-17T06:53:11.735Z,3.87
2022-11-17T06:56:03.916Z,3.60
2022-11-17T06:58:51.358Z,6.00
2022-11-17T07:01:39.052Z,5.33
2022-11-17T07:04:27.582Z,5.17
2022-11-17T07:07:15.067Z,6.40
2022-11-17T07:10:02.832Z,6.17
2022-11-17T07:12:50.294Z,6.73
2022-11-17T07:15:37.656Z,7.07
2022-11-17T07:18:25.787Z,6.53
2022-11-17T07:21:15.489Z,6.17
2022-11-17T07:24:02.692Z,5.73
2022-11-17T07:26:49.977Z,5.53
2022-11-17T07:29:37.451Z,6.00
2022-11-17T07:32:25.365Z,5.87
2022-11-17T07:35:12.586Z,5.27
2022-11-17T07:38:02.479Z,4.37
2022-11-17T07:40:49.952Z,4.67
2022-11-17T07:43:38.231Z,5.57
2022-11-17T07:46:26.032Z,6.00
2022-11-17T07:49:13.112Z,5.17
2022-11-17T07:52:00.304Z,5.67
2022-11-17T07:54:49.268Z,5.90
2022-11-17T07:57:36.425Z,4.70
2022-11-17T08:00:24.233Z,5.93
2022-11-17T08:03:11.553Z,4.80
2022-11-17T08:06:02.807Z,4.63
2022-11-17T08:08:50.329Z,4.50
2022-11-17T08:11:38.825Z,4.57
2022-11-17T08:14:25.942Z,5.73
2022-11-17T08:17:13.406Z,5.30
2022-11-17T08:20:00.905Z,3.90
2022-11-17T08:22:48.328Z,5.57
2022-11-17T08:25:35.447Z,5.10
2022-11-17T08:28:24.513Z,5.10
2022-11-17T08:31:13.051Z,5.80
2022-11-17T08:34:00.133Z,5.53
2022-11-17T08:36:47.748Z,5.10
2022-11-17T08:39:35.268Z,6.17
2022-11-17T08:42:22.861Z,4.53
2022-11-17T08:45:12.154Z,6.27
2022-11-17T08:47:59.707Z,5.30
2022-11-17T08:50:47.111Z,6.20
2022-11-17T08:53:34.878Z,6.53
2022-11-17T08:56:22.431Z,4.97
2022-11-17T08:59:12.841Z,4.17
2022-11-17T09:02:01.280Z,6.80
2022-11-17T09:04:48.440Z,5.47
2022-11-17T09:07:36.586Z,4.90
2022-11-17T09:10:23.648Z,6.13
2022-11-17T09:13:12.742Z,6.00
2022-11-17T09:16:04.201Z,6.03
2022-11-17T09:18:56.651Z,5.03
2022-11-17T09:21:44.684Z,6.53
2022-11-17T09:24:31.796Z,6.30
2022-11-17T09:27:19.239Z,7.27
2022-11-17T09:30:08.023Z,7.43
2022-11-17T09:32:55.411Z,7.53
2022-11-17T09:35:44.244Z,6.17
2022-11-17T09:38:31.299Z,8.70
2022-11-17T09:41:24.568Z,7.40
2022-11-17T09:44:29.238Z,7.47
2022-11-17T09:47:32.722Z,7.60
2022-11-17T09:50:24.548Z,7.70
2022-11-17T09:53:19.447Z,8.50
2022-11-17T09:56:09.898Z,5.83
2022-11-17T09:59:00.694Z,8.30
2022-11-17T10:01:47.864Z,7.23
2022-11-17T10:04:35.403Z,8.50
2022-11-17T10:07:23.330Z,7.70
2022-11-17T10:10:18.603Z,7.63
2022-11-17T10:13:11.553Z,7.03
2022-11-17T10:16:03.227Z,8.00
2022-11-17T10:18:50.371Z,7.03
2022-11-17T10:21:38.892Z,6.20
2022-11-17T10:24:38.011Z,8.63
2022-11-17T10:27:28.348Z,6.10
2022-11-17T10:30:23.628Z,7.03
2022-11-17T10:33:14.704Z,8.07
2022-11-17T10:36:02.786Z,6.90
2022-11-17T10:38:51.696Z,6.40
2022-11-17T10:41:42.005Z,8.33
2022-11-17T10:44:33.522Z,9.00
2022-11-17T10:47:30.491Z,6.87
2022-11-17T10:50:23.952Z,6.10
2022-11-17T10:53:24.719Z,4.87
2022-11-17T10:56:15.456Z,4.77
2022-11-17T10:59:13.698Z,6.93
2022-11-17T11:02:28.183Z,6.87
2022-11-17T11:05:17.385Z,6.27
2022-11-17T11:08:19.492Z,7.00
2022-11-17T11:11:13.806Z,7.13
2022-11-17T11:14:06.417Z,5.77
2022-11-17T11:16:55.448Z,6.73
2022-11-17T11:19:47.275Z,6.33
2022-11-17T11:22:37.934Z,6.97
2022-11-17T11:25:33.888Z,5.57
2022-11-17T11:28:41.312Z,6.10
2022-11-17T11:31:43.041Z,4.73
2022-11-17T11:34:50.943Z,6.80
2022-11-17T11:37:44.952Z,6.23
2022-11-17T11:40:36.966Z,5.80
2022-11-17T11:43:37.141Z,6.43
2022-11-17T11:46:32.262Z,5.70
2022-11-17T11:49:28.364Z,5.73
2022-11-17T11:52:21.729Z,6.03
2022-11-17T11:55:20.015Z,5.67
2022-11-17T11:58:16.350Z,5.07
2022-11-17T12:01:07.737Z,4.57
2022-11-17T12:04:15.306Z,4.83
2022-11-17T12:07:15.038Z,6.70
2022-11-17T12:10:07.801Z,4.93
2022-11-17T12:12:55.199Z,5.23
2022-11-17T12:15:42.497Z,4.83
2022-11-17T12:18:33.406Z,5.73
2022-11-17T12:21:23.875Z,5.43
2022-11-17T12:24:16.989Z,5.90
2022-11-17T12:27:44.442Z,3.50
2022-11-17T12:30:56.499Z,5.67
2022-11-17T12:34:23.027Z,4.77
2022-11-17T12:37:30.917Z,6.63
2022-11-17T12:40:45.555Z,3.40
2022-11-17T12:43:34.216Z,4.77
2022-11-17T12:46:27.813Z,6.47
2022-11-17T12:49:25.621Z,5.57
2022-11-17T12:52:17.913Z,5.83
2022-11-17T12:55:16.827Z,3.70
2022-11-17T12:58:17.969Z,5.90
2022-11-17T13:01:14.616Z,5.33
2022-11-17T13:04:08.590Z,5.27
2022-11-17T13:07:01.722Z,5.90
2022-11-17T13:09:52.680Z,7.30
2022-11-17T13:12:39.779Z,5.20
2022-11-17T13:15:27.279Z,4.70
2022-11-17T13:18:30.506Z,5.43
2022-11-17T13:21:30.053Z,4.50
2022-11-17T13:29:07.721Z,5.63
2022-11-17T13:32:17.244Z,5.17
2022-11-17T13:35:20.171Z,5.97
2022-11-17T13:38:18.887Z,5.63
2022-11-17T13:41:07.225Z,5.97
2022-11-17T13:43:55.902Z,5.53
2022-11-17T13:46:43.374Z,4.47
2022-11-17T13:49:37.254Z,4.97
2022-11-17T13:52:40.500Z,4.80
2022-11-17T13:55:32.055Z,6.20
2022-11-17T13:58:28.568Z,4.97
2022-11-17T14:01:15.953Z,4.83
2022-11-17T14:04:20.295Z,6.43
2022-11-17T14:07:12.298Z,6.33
2022-11-17T14:10:14.341Z,5.30
2022-11-17T14:13:27.560Z,4.53
2022-11-17T14:16:27.546Z,5.77
2022-11-17T14:19:32.826Z,5.17
2022-11-17T14:22:31.262Z,4.63
2022-11-17T14:25:20.446Z,5.57
2022-11-17T14:28:13.935Z,6.10
2022-11-17T14:31:01.327Z,6.47
2022-11-17T14:33:50.390Z,5.27
2022-11-17T14:36:39.210Z,6.13
2022-11-17T14:39:26.630Z,5.90
2022-11-17T14:42:15.321Z,3.93
2022-11-17T14:45:02.391Z,5.97
2022-11-17T14:47:49.957Z,6.23
2022-11-17T14:50:37.158Z,5.40
2022-11-17T14:53:24.994Z,5.00
2022-11-17T14:56:15.484Z,4.50
2022-11-17T14:59:04.167Z,5.37
2022-11-17T15:01:51.503Z,4.33
2022-11-17T15:04:56.447Z,6.17
2022-11-17T15:07:44.435Z,5.43
2022-11-17T15:10:31.907Z,4.93
2022-11-17T15:13:19.284Z,6.87
2022-11-17T15:16:08.683Z,7.13
2022-11-17T15:18:56.066Z,7.20
2022-11-17T15:21:43.443Z,5.13
2022-11-17T15:24:30.939Z,5.87
2022-11-17T15:27:18.212Z,6.00
2022-11-17T15:30:06.672Z,7.57
2022-11-17T15:32:55.481Z,7.13
2022-11-17T15:35:42.843Z,6.67
2022-11-17T15:38:30.426Z,6.80
2022-11-17T15:41:17.948Z,7.47
2022-11-17T15:44:05.891Z,6.50
2022-11-17T15:46:52.933Z,8.40
2022-11-17T15:49:41.603Z,7.60
2022-11-17T15:52:41.973Z,8.37
2022-11-17T15:55:36.050Z,5.93
2022-11-17T15:58:23.278Z,5.77
2022-11-17T16:01:15.098Z,7.40
2022-11-17T16:04:04.554Z,6.07
2022-11-17T16:06:53.144Z,7.40
2022-11-17T16:09:40.197Z,8.23
2022-11-17T16:12:27.534Z,7.33
2022-11-17T16:15:15.019Z,9.17
2022-11-17T16:18:02.275Z,7.97
2022-11-17T16:20:49.674Z,8.40
2022-11-17T16:23:43.061Z,8.73
2022-11-17T16:26:30.614Z,6.63
2022-11-17T16:29:18.215Z,6.53
2022-11-17T16:32:05.679Z,6.10
2022-11-17T16:34:53.136Z,6.13
2022-11-17T16:37:40.559Z,7.27
2022-11-17T16:40:29.434Z,5.50
2022-11-17T16:43:16.929Z,8.80
2022-11-17T16:46:16.768Z,7.77
2022-11-17T16:49:06.199Z,9.23
2022-11-17T16:51:54.715Z,8.90
2022-11-17T16:54:42.049Z,6.20
2022-11-17T16:57:31.138Z,7.00
2022-11-17T17:00:18.997Z,7.80
2022-11-17T17:03:06.395Z,8.20
2022-11-17T17:05:53.791Z,7.67
2022-11-17T17:08:41.989Z,8.53
2022-11-17T17:11:31.772Z,7.63
2022-11-17T17:14:20.231Z,8.97
2022-11-17T17:17:07.404Z,8.23
2022-11-17T17:19:55.008Z,6.73
2022-11-17T17:22:42.446Z,6.97
2022-11-17T17:25:29.898Z,7.60
2022-11-17T17:28:17.242Z,7.67
2022-11-17T17:31:06.270Z,7.13
2022-11-17T17:33:55.893Z,7.93
2022-11-17T17:36:42.869Z,7.03
2022-11-17T17:39:30.350Z,8.83
2022-11-17T17:42:17.788Z,8.53
2022-11-17T17:45:05.709Z,7.57
2022-11-17T17:47:54.212Z,7.60
2022-11-17T17:50:41.294Z,8.70
2022-11-17T17:53:28.929Z,5.20
2022-11-17T17:56:17.422Z,8.60
2022-11-17T17:59:04.523Z,7.53
2022-11-17T18:01:53.255Z,5.13
2022-11-17T18:04:42.146Z,9.53
2022-11-17T18:07:29.429Z,5.17
2022-11-17T18:10:18.231Z,5.43
2022-11-17T18:13:10.540Z,8.17
2022-11-17T18:15:58.381Z,8.43
2022-11-17T18:18:46.225Z,8.90
2022-11-17T18:21:35.380Z,10.60
2022-11-17T18:24:22.956Z,5.67
2022-11-17T18:27:10.061Z,7.13
2022-11-17T18:29:57.489Z,5.73
2022-11-17T18:32:44.807Z,9.50
2022-11-17T18:35:32.155Z,6.53
2022-11-17T18:38:20.867Z,10.43
2022-11-17T18:41:10.243Z,10.10
2022-11-17T18:43:57.824Z,11.27
2022-11-17T18:46:45.486Z,9.07
2022-11-17T18:49:34.439Z,10.53
2022-11-17T18:52:21.417Z,7.70
2022-11-17T18:55:10.707Z,7.87
2022-11-17T18:57:57.872Z,6.40
2022-11-17T19:00:45.243Z,6.40
2022-11-17T19:03:32.781Z,9.73
2022-11-17T19:06:21.801Z,8.57
2022-11-17T19:09:09.163Z,8.40
2022-11-17T19:11:57.719Z,10.30
2022-11-17T19:14:44.882Z,9.50
2022-11-17T19:17:32.267Z,10.10
2022-11-17T19:20:20.123Z,9.33
2022-11-17T19:23:07.765Z,8.30
2022-11-17T19:25:55.170Z,5.97
2022-11-17T19:28:44.696Z,6.27
2022-11-17T19:31:32.016Z,10.57
2022-11-17T19:34:19.166Z,7.63
2022-11-17T19:37:06.728Z,9.67
2022-11-17T19:39:54.112Z,10.53
2022-11-17T19:42:41.847Z,10.53
2022-11-17T19:45:30.822Z,8.57
2022-11-17T19:48:17.928Z,10.53
2022-11-17T19:51:14.500Z,9.70
2022-11-17T19:54:03.948Z,10.60
2022-11-17T19:56:51.181Z,8.97
2022-11-17T19:59:38.514Z,8.80
2022-11-17T20:02:27.344Z,9.80
2022-11-17T20:05:14.599Z,9.83
2022-11-17T20:08:01.872Z,10.80
2022-11-17T20:10:49.283Z,8.13
2022-11-17T20:13:37.875Z,8.40
2022-11-17T20:16:27.349Z,9.73
2022-11-17T20:19:16.489Z,11.30
2022-11-17T20:22:04.040Z,6.93
2022-11-17T20:24:51.519Z,8.13
2022-11-17T20:27:39.044Z,9.40
2022-11-17T20:30:26.446Z,8.90
2022-11-17T20:33:14.040Z,9.00
2022-11-17T20:36:03.386Z,11.33
2022-11-17T20:38:52.095Z,8.40
2022-11-17T20:41:39.306Z,10.17
2022-11-17T20:44:26.511Z,11.17
2022-11-17T20:47:14.196Z,11.83
2022-11-17T20:50:01.363Z,10.63
2022-11-17T20:52:50.195Z,10.07
2022-11-17T20:55:38.256Z,11.13
2022-11-17T20:58:26.144Z,11.03
2022-11-17T21:01:15.659Z,8.33
2022-11-17T21:04:03.300Z,10.97
2022-11-17T21:06:50.673Z,12.93
2022-11-17T21:09:40.073Z,11.53
2022-11-17T21:12:28.591Z,8.50
2022-11-17T21:15:16.503Z,12.03
2022-11-17T21:18:20.940Z,10.83
2022-11-17T21:21:09.534Z,11.87
2022-11-17T21:23:56.793Z,7.70
2022-11-17T21:26:45.597Z,11.07
2022-11-17T21:29:32.979Z,11.10
2022-11-17T21:32:20.032Z,10.83
2022-11-17T21:35:07.812Z,5.70
2022-11-17T21:37:55.663Z,10.97
2022-11-17T21:40:42.719Z,9.73
2022-11-17T21:43:32.440Z,9.67
2022-11-17T21:46:21.305Z,11.73
2022-11-17T21:49:08.771Z,10.00
2022-11-17T21:51:56.246Z,12.50
2022-11-17T21:54:43.703Z,12.03
2022-11-17T21:57:31.296Z,11.50
2022-11-17T22:00:20.732Z,11.17
2022-11-17T22:03:08.030Z,10.83
2022-11-17T22:06:01.032Z,8.53
2022-11-17T22:08:49.834Z,10.37
2022-11-17T22:11:38.108Z,9.70
2022-11-17T22:14:26.257Z,11.47
2022-11-17T22:17:14.733Z,11.37
2022-11-17T22:20:01.887Z,7.13
2022-11-17T22:22:53.661Z,11.43
2022-11-17T22:25:45.609Z,12.07
2022-11-17T22:28:33.394Z,10.53
2022-11-17T22:31:23.514Z,9.67
2022-11-17T22:34:12.125Z,11.80
2022-11-17T22:36:59.392Z,11.33
2022-11-17T22:39:46.799Z,10.33
2022-11-17T22:42:34.230Z,11.03
2022-11-17T22:45:21.758Z,10.97
2022-11-17T22:48:10.211Z,11.00
2022-11-17T22:51:00.146Z,11.37
2022-11-17T22:53:47.475Z,11.80
2022-11-17T22:56:35.783Z,10.33
2022-11-17T22:59:24.046Z,12.87
2022-11-17T23:02:11.255Z,11.87
2022-11-17T23:04:58.716Z,10.53
2022-11-17T23:07:47.534Z,11.67
2022-11-17T23:10:34.712Z,10.90
2022-11-17T23:13:22.056Z,12.30
2022-11-17T23:16:09.605Z,11.90
2022-11-17T23:18:57.596Z,8.87
2022-11-17T23:21:44.978Z,9.73
2022-11-17T23:24:33.668Z,12.97
2022-11-17T23:27:20.824Z,9.10
2022-11-17T23:30:09.062Z,12.97
2022-11-17T23:32:56.446Z,12.30
2022-11-17T23:35:43.548Z,12.40
2022-11-17T23:38:31.668Z,12.73
2022-11-17T23:41:21.874Z,12.73
2022-11-17T23:44:09.071Z,14.13
2022-11-17T23:46:56.352Z,7.83
2022-11-17T23:49:43.780Z,10.83
2022-11-17T23:52:32.000Z,9.53
2022-11-17T23:55:19.229Z,12.87
2022-11-17T23:58:08.089Z,14.40
